createdAt,value
2023-03-18T00:01:27.050Z,11.40
2023-03-18T00:03:55.396Z,11.30
2023-03-18T00:06:25.014Z,11.20
2023-03-18T00:08:53.179Z,11.10
2023-03-18T00:11:22.554Z,11.00
2023-03-18T00:13:52.881Z,10.90
2023-03-18T00:16:21.385Z,10.80
2023-03-18T00:18:49.828Z,10.80
2023-03-18T00:21:19.037Z,10.70
2023-03-18T00:23:48.936Z,10.60
2023-03-18T00:26:17.273Z,10.60
2023-03-18T00:28:45.419Z,10.60
2023-03-18T00:31:14.149Z,10.60
2023-03-18T00:33:43.788Z,10.30
2023-03-18T00:36:13.825Z,10.30
2023-03-18T00:38:42.795Z,10.20
2023-03-18T00:41:15.748Z,10.20
2023-03-18T00:43:52.858Z,10.20
2023-03-18T00:46:24.747Z,10.20
2023-03-18T00:48:54.225Z,10.10
2023-03-18T00:51:24.192Z,10.10
2023-03-18T00:53:54.583Z,10.00
2023-03-18T00:56:27.949Z,10.00
2023-03-18T00:58:57.387Z,9.90
2023-03-18T01:01:26.798Z,9.80
2023-03-18T01:03:55.941Z,9.80
2023-03-18T01:06:28.500Z,9.80
2023-03-18T01:08:58.630Z,9.90
2023-03-18T01:11:28.397Z,9.80
2023-03-18T01:13:56.692Z,9.80
2023-03-18T01:16:25.258Z,9.80
2023-03-18T01:18:54.205Z,9.90
2023-03-18T01:21:22.768Z,10.00
2023-03-18T01:23:50.945Z,10.00
2023-03-18T01:26:19.314Z,10.10
2023-03-18T01:28:48.820Z,10.10
2023-03-18T01:31:17.219Z,10.20
2023-03-18T01:33:45.417Z,10.00
2023-03-18T01:36:13.751Z,10.00
2023-03-18T01:38:42.898Z,10.00
2023-03-18T01:41:12.330Z,9.90
2023-03-18T01:43:42.876Z,10.00
2023-03-18T01:46:36.060Z,10.00
2023-03-18T01:49:07.547Z,9.90
2023-03-18T01:51:36.135Z,9.90
2023-03-18T01:54:07.037Z,10.00
2023-03-18T01:56:37.566Z,10.00
2023-03-18T01:59:07.993Z,9.90
2023-03-18T02:01:42.834Z,9.80
2023-03-18T02:06:45.065Z,9.70
2023-03-18T02:09:15.838Z,9.40
2023-03-18T02:11:52.411Z,9.40
2023-03-18T02:14:28.033Z,9.40
2023-03-18T02:17:04.285Z,9.40
2023-03-18T02:19:53.453Z,9.50
2023-03-18T02:22:31.140Z,9.40
2023-03-18T02:25:40.593Z,9.40
2023-03-18T02:28:20.237Z,9.30
2023-03-18T02:30:57.537Z,9.30
2023-03-18T02:33:29.455Z,9.20
2023-03-18T02:36:08.776Z,9.20
2023-03-18T02:38:43.941Z,9.20
2023-03-18T02:41:29.616Z,9.30
2023-03-18T02:44:00.836Z,9.30
2023-03-18T02:46:38.784Z,9.40
2023-03-18T02:49:14.285Z,9.50
2023-03-18T02:51:46.651Z,9.50
2023-03-18T02:57:03.100Z,9.30
2023-03-18T02:59:32.653Z,9.20
2023-03-18T03:02:05.784Z,9.10
2023-03-18T03:04:42.927Z,9.00
2023-03-18T03:07:13.145Z,9.00
2023-03-18T03:09:42.988Z,9.00
2023-03-18T03:12:11.790Z,8.90
2023-03-18T03:14:45.834Z,8.90
2023-03-18T03:17:17.537Z,8.80
2023-03-18T03:19:46.208Z,8.80
2023-03-18T03:22:18.106Z,8.70
2023-03-18T03:24:47.728Z,8.80
2023-03-18T03:27:18.987Z,8.70
2023-03-18T03:29:52.274Z,8.80
2023-03-18T03:32:22.331Z,8.70
2023-03-18T03:34:51.801Z,8.80
2023-03-18T03:37:24.255Z,8.80
2023-03-18T03:39:53.860Z,8.70
2023-03-18T03:42:24.374Z,8.60
2023-03-18T03:44:53.851Z,8.60
2023-03-18T03:47:22.398Z,8.50
2023-03-18T03:49:50.601Z,8.50
2023-03-18T03:52:21.949Z,8.50
2023-03-18T03:54:58.286Z,8.40
2023-03-18T03:57:37.942Z,8.40
2023-03-18T04:00:13.924Z,8.30
2023-03-18T04:02:45.825Z,8.20
2023-03-18T04:05:19.039Z,8.20
2023-03-18T04:07:49.333Z,8.10
2023-03-18T04:10:26.277Z,8.10
2023-03-18T04:12:56.677Z,8.10
2023-03-18T04:15:28.668Z,8.20
2023-03-18T04:18:07.716Z,8.20
2023-03-18T04:23:20.893Z,8.00
2023-03-18T04:25:51.092Z,7.90
2023-03-18T04:28:19.370Z,7.80
2023-03-18T04:30:51.827Z,7.80
2023-03-18T04:33:21.253Z,7.80
2023-03-18T04:35:52.766Z,7.80
2023-03-18T04:38:22.257Z,7.60
2023-03-18T04:40:55.644Z,7.60
2023-03-18T04:43:29.240Z,7.50
2023-03-18T04:46:07.138Z,7.50
2023-03-18T04:48:38.925Z,7.40
2023-03-18T04:51:09.530Z,7.40
2023-03-18T04:53:39.237Z,7.40
2023-03-18T04:56:13.557Z,7.30
2023-03-18T04:58:45.397Z,7.30
2023-03-18T05:01:18.126Z,7.20
2023-03-18T05:03:50.409Z,7.10
2023-03-18T05:06:25.002Z,7.00
2023-03-18T05:08:57.362Z,6.90
2023-03-18T05:11:25.718Z,6.90
2023-03-18T05:13:56.353Z,6.90
2023-03-18T05:16:27.764Z,6.90
2023-03-18T05:18:57.940Z,6.90
2023-03-18T05:21:31.804Z,6.80
2023-03-18T05:24:10.897Z,6.90
2023-03-18T05:26:39.898Z,6.90
2023-03-18T05:29:09.222Z,6.90
2023-03-18T05:31:48.708Z,7.10
2023-03-18T05:34:19.159Z,7.00
2023-03-18T05:36:49.553Z,7.10
2023-03-18T05:39:20.077Z,6.90
2023-03-18T05:42:04.419Z,6.90
2023-03-18T05:44:34.048Z,6.90
2023-03-18T05:47:03.956Z,6.80
2023-03-18T05:49:36.320Z,6.80
2023-03-18T05:52:06.293Z,6.90
2023-03-18T05:54:40.734Z,6.90
2023-03-18T05:57:11.374Z,6.80
2023-03-18T05:59:42.143Z,6.80
2023-03-18T06:02:21.967Z,6.80
2023-03-18T06:04:50.371Z,7.00
2023-03-18T06:07:20.772Z,7.00
2023-03-18T06:09:56.554Z,7.00
2023-03-18T06:12:28.702Z,6.90
2023-03-18T06:15:01.850Z,6.90
2023-03-18T06:17:32.963Z,6.80
2023-03-18T06:20:01.132Z,6.90
2023-03-18T06:22:33.124Z,7.00
2023-03-18T06:25:14.821Z,7.00
2023-03-18T06:27:46.818Z,7.10
2023-03-18T06:30:28.841Z,7.20
2023-03-18T06:33:03.647Z,7.10
2023-03-18T06:35:35.531Z,7.10
2023-03-18T06:38:06.797Z,7.30
2023-03-18T06:40:35.149Z,7.30
2023-03-18T06:45:47.100Z,7.80
2023-03-18T06:48:21.592Z,7.90
2023-03-18T06:50:49.882Z,8.20
2023-03-18T06:53:21.059Z,8.30
2023-03-18T06:55:50.170Z,8.50
2023-03-18T06:58:21.411Z,8.80
2023-03-18T07:00:49.573Z,9.10
2023-03-18T07:03:31.909Z,9.30
2023-03-18T07:06:04.610Z,9.50
2023-03-18T07:08:35.922Z,9.70
2023-03-18T07:11:07.076Z,9.80
2023-03-18T07:13:36.933Z,10.00
2023-03-18T07:16:07.264Z,10.20
2023-03-18T07:18:43.155Z,10.50
2023-03-18T07:21:12.275Z,10.70
2023-03-18T07:23:44.769Z,10.80
2023-03-18T07:26:19.645Z,11.00
2023-03-18T07:28:48.721Z,11.20
2023-03-18T07:31:20.283Z,11.40
2023-03-18T07:33:50.205Z,11.40
2023-03-18T07:36:19.474Z,11.40
2023-03-18T07:38:48.139Z,11.60
2023-03-18T07:41:21.149Z,11.80
2023-03-18T07:43:52.749Z,11.90
2023-03-18T07:46:23.301Z,12.00
2023-03-18T07:48:53.804Z,12.10
2023-03-18T07:51:27.792Z,12.30
2023-03-18T07:53:57.536Z,12.30
2023-03-18T07:56:29.302Z,12.40
2023-03-18T07:58:58.620Z,12.30
2023-03-18T08:01:28.042Z,12.10
2023-03-18T08:04:02.777Z,12.20
2023-03-18T08:06:33.292Z,12.10
2023-03-18T08:09:03.627Z,12.30
2023-03-18T08:11:37.075Z,12.40
2023-03-18T08:14:09.840Z,12.50
2023-03-18T08:16:49.912Z,12.80
2023-03-18T08:19:19.460Z,12.80
2023-03-18T08:21:49.209Z,12.90
2023-03-18T08:24:17.464Z,13.10
2023-03-18T08:26:48.096Z,13.30
2023-03-18T08:29:18.958Z,13.60
2023-03-18T08:31:48.473Z,13.90
2023-03-18T08:34:19.305Z,14.00
2023-03-18T08:36:53.458Z,14.30
2023-03-18T08:39:22.626Z,14.40
2023-03-18T08:41:59.804Z,14.50
2023-03-18T08:44:28.031Z,14.70
2023-03-18T08:46:57.787Z,14.80
2023-03-18T08:49:28.569Z,14.80
2023-03-18T08:51:58.040Z,15.10
2023-03-18T08:54:35.619Z,15.10
2023-03-18T08:57:06.234Z,15.30
2023-03-18T08:59:36.615Z,15.20
2023-03-18T09:02:06.216Z,15.30
2023-03-18T09:04:36.661Z,15.40
2023-03-18T09:07:06.178Z,15.30
2023-03-18T09:09:43.425Z,15.40
2023-03-18T09:12:14.227Z,15.30
2023-03-18T09:14:44.201Z,15.40
2023-03-18T09:17:15.825Z,15.60
2023-03-18T09:19:44.250Z,15.50
2023-03-18T09:22:30.832Z,15.60
2023-03-18T09:24:59.540Z,15.70
2023-03-18T09:27:31.071Z,15.80
2023-03-18T09:30:01.914Z,15.60
2023-03-18T09:32:34.194Z,15.80
2023-03-18T09:35:07.484Z,15.90
2023-03-18T09:37:39.242Z,15.90
2023-03-18T09:40:10.951Z,15.70
2023-03-18T09:42:52.721Z,15.70
2023-03-18T09:45:31.318Z,15.90
2023-03-18T09:48:35.892Z,15.90
2023-03-18T09:51:19.154Z,16.10
2023-03-18T09:53:59.477Z,16.30
2023-03-18T09:56:30.735Z,16.30
2023-03-18T09:59:06.877Z,16.60
2023-03-18T10:01:39.617Z,16.20
2023-03-18T10:04:14.845Z,15.80
2023-03-18T10:06:59.883Z,16.10
2023-03-18T10:09:41.840Z,16.10
2023-03-18T10:12:17.989Z,16.10
2023-03-18T10:14:51.511Z,16.10
2023-03-18T10:17:29.015Z,16.20
2023-03-18T10:20:01.401Z,16.20
2023-03-18T10:22:54.365Z,16.30
2023-03-18T10:25:38.509Z,16.40
2023-03-18T10:28:42.600Z,16.60
2023-03-18T10:31:34.801Z,16.60
2023-03-18T10:34:10.038Z,16.70
2023-03-18T10:36:49.662Z,16.70
2023-03-18T10:39:20.336Z,16.80
2023-03-18T10:42:06.465Z,16.80
2023-03-18T10:44:38.877Z,16.80
2023-03-18T10:47:19.321Z,16.90
2023-03-18T10:50:00.678Z,16.90
2023-03-18T10:52:38.185Z,17.00
2023-03-18T10:55:20.900Z,16.80
2023-03-18T10:57:55.763Z,16.90
2023-03-18T11:00:35.780Z,16.90
2023-03-18T11:03:08.869Z,16.70
2023-03-18T11:05:43.428Z,16.60
2023-03-18T11:08:59.813Z,16.80
2023-03-18T11:11:36.071Z,16.90
2023-03-18T11:14:27.290Z,17.00
2023-03-18T11:16:59.759Z,16.90
2023-03-18T11:19:39.639Z,17.00
2023-03-18T11:22:22.530Z,16.80
2023-03-18T11:25:07.072Z,16.80
2023-03-18T11:27:51.157Z,16.80
2023-03-18T11:30:36.825Z,16.50
2023-03-18T11:33:14.283Z,16.50
2023-03-18T11:35:47.409Z,16.50
2023-03-18T11:38:21.864Z,16.70
2023-03-18T11:40:52.270Z,16.70
2023-03-18T11:43:25.672Z,16.80
2023-03-18T11:46:00.168Z,16.80
2023-03-18T11:48:36.732Z,16.70
2023-03-18T11:51:35.057Z,17.00
2023-03-18T11:54:24.598Z,17.40
2023-03-18T11:56:57.424Z,17.60
2023-03-18T11:59:37.824Z,17.80
2023-03-18T12:02:35.267Z,18.00
2023-03-18T12:05:22.594Z,18.30
2023-03-18T12:08:04.330Z,18.50
2023-03-18T12:10:37.506Z,18.70
2023-03-18T12:13:17.844Z,18.80
2023-03-18T12:15:54.828Z,18.90
2023-03-18T12:18:42.793Z,18.50
2023-03-18T12:21:36.146Z,18.20
2023-03-18T12:24:21.817Z,18.60
2023-03-18T12:26:56.885Z,18.80
2023-03-18T12:30:03.999Z,19.10
2023-03-18T12:32:38.109Z,19.30
2023-03-18T12:35:30.360Z,19.50
2023-03-18T12:38:27.366Z,19.50
2023-03-18T12:41:05.225Z,19.10
2023-03-18T12:43:44.217Z,18.70
2023-03-18T12:46:22.355Z,18.60
2023-03-18T12:48:59.289Z,18.50
2023-03-18T12:51:35.862Z,18.30
2023-03-18T12:54:12.152Z,18.70
2023-03-18T12:56:45.747Z,19.00
2023-03-18T12:59:20.417Z,18.90
2023-03-18T13:01:55.436Z,18.90
2023-03-18T13:04:28.851Z,18.80
2023-03-18T13:07:04.710Z,18.70
2023-03-18T13:09:39.555Z,18.90
2023-03-18T13:12:12.621Z,18.80
2023-03-18T13:14:50.205Z,19.10
2023-03-18T13:17:25.702Z,19.00
2023-03-18T13:19:53.881Z,19.10
2023-03-18T13:22:48.368Z,19.30
2023-03-18T13:25:23.736Z,19.00
2023-03-18T13:28:07.712Z,19.00
2023-03-18T13:30:51.075Z,19.20
2023-03-18T13:33:47.552Z,19.00
2023-03-18T13:36:49.485Z,18.80
2023-03-18T13:39:26.679Z,18.70
2023-03-18T13:42:23.178Z,18.80
2023-03-18T13:44:59.831Z,18.80
2023-03-18T13:47:32.149Z,18.50
2023-03-18T13:50:05.380Z,18.80
2023-03-18T13:52:37.545Z,18.80
2023-03-18T13:55:16.948Z,19.00
2023-03-18T13:57:54.906Z,19.10
2023-03-18T14:00:31.388Z,19.10
2023-03-18T14:03:07.827Z,19.10
2023-03-18T14:05:40.514Z,19.20
2023-03-18T14:08:37.348Z,19.30
2023-03-18T14:11:51.195Z,19.70
2023-03-18T14:15:01.572Z,20.20
2023-03-18T14:17:42.628Z,20.70
2023-03-18T14:20:39.531Z,20.80
2023-03-18T14:23:37.139Z,21.30
2023-03-18T14:26:08.199Z,21.10
2023-03-18T14:28:47.441Z,20.70
2023-03-18T14:31:33.732Z,20.30
2023-03-18T14:34:23.118Z,20.50
2023-03-18T14:37:30.402Z,20.00
2023-03-18T14:40:08.595Z,20.30
2023-03-18T14:42:56.646Z,20.40
2023-03-18T14:45:29.053Z,20.40
2023-03-18T14:47:59.712Z,20.90
2023-03-18T15:03:56.194Z,20.90
2023-03-18T15:06:27.537Z,20.30
2023-03-18T15:09:02.044Z,20.20
2023-03-18T15:11:35.402Z,20.00
2023-03-18T15:14:04.309Z,20.30
2023-03-18T15:16:33.415Z,20.30
2023-03-18T15:19:05.279Z,19.80
2023-03-18T15:21:35.973Z,19.80
2023-03-18T15:24:07.556Z,19.70
2023-03-18T15:26:38.642Z,19.90
2023-03-18T15:29:25.282Z,20.30
2023-03-18T15:31:54.176Z,20.80
2023-03-18T15:34:30.997Z,20.70
2023-03-18T15:37:01.168Z,20.60
2023-03-18T15:39:36.357Z,20.80
2023-03-18T15:42:15.142Z,20.90
2023-03-18T15:44:46.209Z,20.70
2023-03-18T15:47:17.762Z,20.10
2023-03-18T15:49:54.559Z,19.60
2023-03-18T15:52:26.215Z,19.00
2023-03-18T15:54:54.582Z,18.60
2023-03-18T15:57:29.176Z,18.30
2023-03-18T15:59:57.280Z,18.30
2023-03-18T16:02:25.670Z,18.40
2023-03-18T16:05:05.138Z,18.30
2023-03-18T16:07:33.553Z,18.40
2023-03-18T16:10:01.656Z,18.60
2023-03-18T16:12:33.295Z,18.40
2023-03-18T16:15:05.070Z,18.40
2023-03-18T16:17:33.470Z,18.40
2023-03-18T16:20:06.565Z,18.00
2023-03-18T16:22:35.305Z,17.80
2023-03-18T16:25:03.480Z,17.70
2023-03-18T16:27:37.585Z,17.60
2023-03-18T16:30:07.367Z,17.50
2023-03-18T16:32:38.662Z,17.40
2023-03-18T16:35:09.716Z,17.30
2023-03-18T16:37:38.124Z,17.20
2023-03-18T16:40:15.412Z,17.20
2023-03-18T16:42:43.981Z,17.20
2023-03-18T16:45:17.442Z,17.10
2023-03-18T16:47:47.494Z,17.10
2023-03-18T16:50:19.427Z,17.10
2023-03-18T16:52:48.416Z,17.10
2023-03-18T16:55:19.444Z,17.10
2023-03-18T16:57:51.572Z,17.00
2023-03-18T17:00:23.452Z,17.00
2023-03-18T17:02:53.743Z,16.90
2023-03-18T17:05:23.638Z,16.80
2023-03-18T17:07:52.132Z,16.80
2023-03-18T17:10:22.941Z,16.70
2023-03-18T17:12:55.558Z,16.60
2023-03-18T17:15:28.886Z,16.60
2023-03-18T17:17:58.674Z,16.60
2023-03-18T17:20:32.465Z,16.60
2023-03-18T17:23:01.621Z,16.40
2023-03-18T17:25:31.155Z,16.20
2023-03-18T17:28:01.187Z,16.00
2023-03-18T17:30:33.987Z,16.00
2023-03-18T17:33:03.568Z,15.80
2023-03-18T17:35:33.769Z,15.80
2023-03-18T17:38:02.087Z,15.50
2023-03-18T17:40:31.694Z,15.50
2023-03-18T17:43:01.286Z,15.50
2023-03-18T17:45:32.240Z,15.50
2023-03-18T17:48:18.014Z,15.50
2023-03-18T17:50:48.309Z,15.40
2023-03-18T17:53:27.984Z,15.10
2023-03-18T17:55:57.209Z,14.90
2023-03-18T17:58:27.501Z,14.80
2023-03-18T18:01:00.226Z,14.80
2023-03-18T18:03:30.974Z,14.70
2023-03-18T18:06:00.725Z,14.50
2023-03-18T18:08:31.659Z,14.40
2023-03-18T18:11:05.626Z,14.40
2023-03-18T18:13:33.833Z,14.30
2023-03-18T18:16:02.029Z,14.30
2023-03-18T18:18:30.430Z,14.30
2023-03-18T18:21:01.651Z,14.20
2023-03-18T18:23:32.300Z,14.00
2023-03-18T18:26:03.138Z,14.00
2023-03-18T18:28:34.135Z,14.00
2023-03-18T18:31:03.576Z,14.00
2023-03-18T18:33:32.111Z,13.90
2023-03-18T18:36:02.303Z,13.80
2023-03-18T18:38:30.878Z,13.80
2023-03-18T18:41:01.901Z,13.80
2023-03-18T18:43:30.294Z,13.80
2023-03-18T18:45:59.313Z,13.80
2023-03-18T18:48:31.136Z,13.70
2023-03-18T18:50:59.616Z,13.60
2023-03-18T18:53:30.995Z,13.70
2023-03-18T18:56:02.563Z,13.60
2023-03-18T18:58:32.643Z,13.60
2023-03-18T19:01:01.497Z,13.60
2023-03-18T19:03:32.450Z,13.60
2023-03-18T19:06:02.448Z,13.70
2023-03-18T19:08:34.406Z,13.60
2023-03-18T19:11:04.667Z,13.50
2023-03-18T19:13:35.036Z,13.40
2023-03-18T19:16:06.073Z,13.40
2023-03-18T19:18:38.382Z,13.40
2023-03-18T19:21:06.998Z,13.40
2023-03-18T19:23:37.609Z,13.40
2023-03-18T19:26:07.479Z,13.50
2023-03-18T19:28:58.807Z,13.60
2023-03-18T19:31:31.182Z,13.50
2023-03-18T19:34:00.957Z,13.50
2023-03-18T19:36:31.977Z,13.40
2023-03-18T19:39:03.326Z,13.40
2023-03-18T19:41:31.929Z,13.30
2023-03-18T19:44:04.190Z,13.30
2023-03-18T19:46:39.028Z,13.30
2023-03-18T19:49:17.247Z,13.30
2023-03-18T19:51:45.519Z,13.20
2023-03-18T19:54:29.086Z,13.20
2023-03-18T19:57:00.409Z,13.20
2023-03-18T19:59:37.497Z,13.30
2023-03-18T20:02:21.961Z,13.30
2023-03-18T20:04:51.077Z,13.30
2023-03-18T20:07:20.646Z,13.30
2023-03-18T20:09:50.836Z,13.20
2023-03-18T20:12:26.267Z,13.20
2023-03-18T20:14:54.415Z,13.20
2023-03-18T20:17:30.465Z,13.10
2023-03-18T20:19:58.806Z,13.10
2023-03-18T20:22:29.877Z,12.90
2023-03-18T20:24:59.646Z,12.90
2023-03-18T20:27:28.744Z,12.90
2023-03-18T20:29:56.950Z,12.80
2023-03-18T20:32:25.321Z,12.80
2023-03-18T20:34:53.581Z,12.70
2023-03-18T20:37:26.666Z,12.60
2023-03-18T20:39:55.081Z,12.50
2023-03-18T20:42:24.701Z,12.40
2023-03-18T20:44:52.862Z,12.40
2023-03-18T20:47:21.283Z,12.30
2023-03-18T20:49:49.413Z,12.20
2023-03-18T20:52:26.782Z,12.10
2023-03-18T20:54:56.587Z,12.20
2023-03-18T20:57:26.529Z,12.10
2023-03-18T20:59:54.823Z,12.10
2023-03-18T21:02:31.953Z,12.10
2023-03-18T21:05:01.665Z,12.10
2023-03-18T21:07:30.880Z,12.00
2023-03-18T21:09:59.055Z,11.90
2023-03-18T21:12:28.920Z,11.80
2023-03-18T21:14:57.145Z,11.70
2023-03-18T21:17:27.778Z,11.50
2023-03-18T21:20:04.934Z,11.60
2023-03-18T21:22:39.537Z,11.50
2023-03-18T21:25:09.244Z,11.40
2023-03-18T21:27:38.834Z,11.40
2023-03-18T21:30:09.734Z,11.40
2023-03-18T21:32:40.071Z,11.40
2023-03-18T21:35:15.852Z,11.40
2023-03-18T21:37:44.082Z,11.30
2023-03-18T21:40:16.501Z,11.20
2023-03-18T21:42:46.352Z,11.20
2023-03-18T21:45:16.430Z,11.10
2023-03-18T21:47:44.706Z,11.10
2023-03-18T21:50:21.582Z,11.10
2023-03-18T21:52:49.859Z,11.20
2023-03-18T21:55:18.607Z,11.30
2023-03-18T21:57:49.162Z,11.20
2023-03-18T22:00:19.963Z,11.20
2023-03-18T22:02:49.166Z,11.30
2023-03-18T22:05:19.899Z,11.30
2023-03-18T22:07:48.085Z,11.30
2023-03-18T22:10:17.681Z,11.30
2023-03-18T22:12:47.286Z,11.40
2023-03-18T22:15:38.382Z,11.40
2023-03-18T22:18:08.451Z,11.40
2023-03-18T22:20:37.263Z,11.50
2023-03-18T22:23:14.639Z,11.50
2023-03-18T22:25:43.032Z,11.50
2023-03-18T22:28:13.271Z,11.50
2023-03-18T22:30:43.598Z,11.50
2023-03-18T22:33:20.634Z,11.40
2023-03-18T22:35:49.231Z,11.40
2023-03-18T22:38:18.931Z,11.40
2023-03-18T22:40:48.820Z,11.40
2023-03-18T22:43:29.494Z,11.40
2023-03-18T22:45:58.074Z,11.40
2023-03-18T22:48:26.537Z,11.40
2023-03-18T22:50:55.534Z,11.30
2023-03-18T22:53:26.594Z,11.20
2023-03-18T22:55:56.149Z,11.20
2023-03-18T22:58:28.598Z,11.10
2023-03-18T23:00:57.301Z,11.20
2023-03-18T23:03:28.829Z,11.10
2023-03-18T23:05:59.228Z,11.20
2023-03-18T23:08:28.235Z,11.10
2023-03-18T23:10:59.963Z,11.10
2023-03-18T23:13:34.523Z,11.10
2023-03-18T23:16:04.389Z,10.90
2023-03-18T23:18:32.856Z,10.90
2023-03-18T23:21:01.764Z,10.90
2023-03-18T23:23:30.451Z,10.80
2023-03-18T23:25:58.703Z,10.90
2023-03-18T23:28:27.317Z,10.90
2023-03-18T23:30:57.493Z,10.90
2023-03-18T23:33:25.621Z,10.90
2023-03-18T23:35:53.867Z,10.90
2023-03-18T23:38:22.117Z,11.00
2023-03-18T23:40:50.433Z,11.00
2023-03-18T23:43:18.615Z,11.00
2023-03-18T23:45:46.817Z,11.10
2023-03-18T23:48:16.545Z,11.10
2023-03-18T23:50:44.668Z,11.10
2023-03-18T23:53:12.832Z,11.10
2023-03-18T23:55:41.075Z,11.20
2023-03-18T23:58:09.298Z,11.10
